sensor_id;sensor_type;location;lat;lon;timestamp;P1;durP1;ratioP1;P2;durP2;ratioP2
75655;SDS011;64252;51.094;13.714;2023-06-26T00:00:15;9.55;;;5.38;;
75655;SDS011;64252;51.094;13.714;2023-06-26T00:02:40;8.45;;;5.35;;
75655;SDS011;64252;51.094;13.714;2023-06-26T00:05:06;9.07;;;5.57;;
75655;SDS011;64252;51.094;13.714;2023-06-26T00:07:32;8.23;;;5.20;;
75655;SDS011;64252;51.094;13.714;2023-06-26T00:10:02;10.55;;;6.18;;
75655;SDS011;64252;51.094;13.714;2023-06-26T00:12:28;9.18;;;5.95;;
75655;SDS011;64252;51.094;13.714;2023-06-26T00:14:55;9.80;;;5.80;;
75655;SDS011;64252;51.094;13.714;2023-06-26T00:17:20;7.75;;;5.30;;
75655;SDS011;64252;51.094;13.714;2023-06-26T00:19:46;7.80;;;5.47;;
75655;SDS011;64252;51.094;13.714;2023-06-26T00:22:12;9.48;;;5.15;;
75655;SDS011;64252;51.094;13.714;2023-06-26T00:24:39;7.20;;;5.15;;
75655;SDS011;64252;51.094;13.714;2023-06-26T00:27:05;11.95;;;6.05;;
75655;SDS011;64252;51.094;13.714;2023-06-26T00:29:31;10.30;;;5.95;;
75655;SDS011;64252;51.094;13.714;2023-06-26T00:31:56;7.32;;;5.28;;
75655;SDS011;64252;51.094;13.714;2023-06-26T00:34:22;9.85;;;5.95;;
75655;SDS011;64252;51.094;13.714;2023-06-26T00:36:48;9.88;;;6.40;;
75655;SDS011;64252;51.094;13.714;2023-06-26T00:39:13;9.63;;;5.70;;
75655;SDS011;64252;51.094;13.714;2023-06-26T00:41:40;8.48;;;5.63;;
75655;SDS011;64252;51.094;13.714;2023-06-26T00:44:05;8.90;;;5.38;;
75655;SDS011;64252;51.094;13.714;2023-06-26T00:46:31;8.15;;;6.00;;
75655;SDS011;64252;51.094;13.714;2023-06-26T00:48:58;7.75;;;5.78;;
75655;SDS011;64252;51.094;13.714;2023-06-26T00:51:25;10.05;;;6.07;;
75655;SDS011;64252;51.094;13.714;2023-06-26T00:53:52;8.85;;;5.72;;
75655;SDS011;64252;51.094;13.714;2023-06-26T00:56:18;9.68;;;6.43;;
75655;SDS011;64252;51.094;13.714;2023-06-26T00:58:45;10.15;;;6.63;;
75655;SDS011;64252;51.094;13.714;2023-06-26T01:01:11;10.75;;;6.22;;
75655;SDS011;64252;51.094;13.714;2023-06-26T01:03:41;8.88;;;5.88;;
75655;SDS011;64252;51.094;13.714;2023-06-26T01:06:07;8.95;;;6.10;;
75655;SDS011;64252;51.094;13.714;2023-06-26T01:08:37;10.57;;;6.18;;
75655;SDS011;64252;51.094;13.714;2023-06-26T01:11:04;8.23;;;5.93;;
75655;SDS011;64252;51.094;13.714;2023-06-26T01:13:29;9.98;;;5.90;;
75655;SDS011;64252;51.094;13.714;2023-06-26T01:15:57;8.50;;;5.72;;
75655;SDS011;64252;51.094;13.714;2023-06-26T01:18:24;10.10;;;6.35;;
75655;SDS011;64252;51.094;13.714;2023-06-26T01:20:50;8.70;;;5.90;;
75655;SDS011;64252;51.094;13.714;2023-06-26T01:23:30;10.65;;;6.30;;
75655;SDS011;64252;51.094;13.714;2023-06-26T01:28:34;9.07;;;5.20;;
75655;SDS011;64252;51.094;13.714;2023-06-26T01:31:02;9.77;;;6.90;;
75655;SDS011;64252;51.094;13.714;2023-06-26T01:33:30;9.82;;;5.95;;
75655;SDS011;64252;51.094;13.714;2023-06-26T01:35:56;8.48;;;5.78;;
75655;SDS011;64252;51.094;13.714;2023-06-26T01:38:22;9.73;;;6.22;;
75655;SDS011;64252;51.094;13.714;2023-06-26T01:40:57;8.95;;;6.55;;
75655;SDS011;64252;51.094;13.714;2023-06-26T01:46:09;10.15;;;6.55;;
75655;SDS011;64252;51.094;13.714;2023-06-26T01:48:47;13.35;;;6.30;;
75655;SDS011;64252;51.094;13.714;2023-06-26T01:51:20;8.43;;;6.18;;
75655;SDS011;64252;51.094;13.714;2023-06-26T01:53:53;8.90;;;5.75;;
75655;SDS011;64252;51.094;13.714;2023-06-26T01:56:20;11.43;;;6.75;;
75655;SDS011;64252;51.094;13.714;2023-06-26T01:58:50;7.60;;;5.35;;
75655;SDS011;64252;51.094;13.714;2023-06-26T02:01:21;12.20;;;6.65;;
75655;SDS011;64252;51.094;13.714;2023-06-26T02:03:48;8.77;;;6.20;;
75655;SDS011;64252;51.094;13.714;2023-06-26T02:06:13;8.15;;;6.18;;
75655;SDS011;64252;51.094;13.714;2023-06-26T02:08:39;10.15;;;6.65;;
75655;SDS011;64252;51.094;13.714;2023-06-26T02:11:05;9.18;;;5.97;;
75655;SDS011;64252;51.094;13.714;2023-06-26T02:13:31;8.73;;;6.10;;
75655;SDS011;64252;51.094;13.714;2023-06-26T02:15:57;10.23;;;5.82;;
75655;SDS011;64252;51.094;13.714;2023-06-26T02:18:23;9.13;;;6.20;;
75655;SDS011;64252;51.094;13.714;2023-06-26T02:20:49;7.95;;;5.57;;
75655;SDS011;64252;51.094;13.714;2023-06-26T02:23:15;11.10;;;6.53;;
75655;SDS011;64252;51.094;13.714;2023-06-26T02:25:40;11.00;;;6.57;;
75655;SDS011;64252;51.094;13.714;2023-06-26T02:28:08;11.25;;;6.78;;
75655;SDS011;64252;51.094;13.714;2023-06-26T02:30:36;9.07;;;6.18;;
75655;SDS011;64252;51.094;13.714;2023-06-26T02:33:01;9.82;;;6.35;;
75655;SDS011;64252;51.094;13.714;2023-06-26T02:35:27;9.73;;;5.70;;
75655;SDS011;64252;51.094;13.714;2023-06-26T02:37:53;8.63;;;6.32;;
75655;SDS011;64252;51.094;13.714;2023-06-26T02:40:19;9.50;;;6.70;;
75655;SDS011;64252;51.094;13.714;2023-06-26T02:42:45;9.82;;;5.75;;
75655;SDS011;64252;51.094;13.714;2023-06-26T02:45:11;9.18;;;6.65;;
75655;SDS011;64252;51.094;13.714;2023-06-26T02:47:36;8.90;;;5.53;;
75655;SDS011;64252;51.094;13.714;2023-06-26T02:50:06;11.30;;;7.07;;
75655;SDS011;64252;51.094;13.714;2023-06-26T02:52:47;12.63;;;6.50;;
75655;SDS011;64252;51.094;13.714;2023-06-26T02:55:18;9.40;;;6.45;;
75655;SDS011;64252;51.094;13.714;2023-06-26T02:57:45;9.27;;;6.25;;
75655;SDS011;64252;51.094;13.714;2023-06-26T03:00:11;10.38;;;6.43;;
75655;SDS011;64252;51.094;13.714;2023-06-26T03:02:43;10.65;;;6.40;;
75655;SDS011;64252;51.094;13.714;2023-06-26T03:05:11;11.40;;;6.75;;
75655;SDS011;64252;51.094;13.714;2023-06-26T03:07:38;11.30;;;6.72;;
75655;SDS011;64252;51.094;13.714;2023-06-26T03:10:05;10.93;;;6.43;;
75655;SDS011;64252;51.094;13.714;2023-06-26T03:12:31;10.18;;;6.38;;
75655;SDS011;64252;51.094;13.714;2023-06-26T03:14:56;9.93;;;7.13;;
75655;SDS011;64252;51.094;13.714;2023-06-26T03:17:22;10.48;;;6.55;;
75655;SDS011;64252;51.094;13.714;2023-06-26T03:19:50;9.82;;;6.32;;
75655;SDS011;64252;51.094;13.714;2023-06-26T03:22:21;10.70;;;6.82;;
75655;SDS011;64252;51.094;13.714;2023-06-26T03:24:47;12.50;;;7.13;;
75655;SDS011;64252;51.094;13.714;2023-06-26T03:27:12;11.40;;;6.78;;
75655;SDS011;64252;51.094;13.714;2023-06-26T03:29:38;10.23;;;7.03;;
75655;SDS011;64252;51.094;13.714;2023-06-26T03:32:04;9.98;;;6.75;;
75655;SDS011;64252;51.094;13.714;2023-06-26T03:34:30;9.52;;;6.35;;
75655;SDS011;64252;51.094;13.714;2023-06-26T03:36:56;9.93;;;6.25;;
75655;SDS011;64252;51.094;13.714;2023-06-26T03:39:22;9.20;;;6.68;;
75655;SDS011;64252;51.094;13.714;2023-06-26T03:41:49;11.23;;;6.20;;
75655;SDS011;64252;51.094;13.714;2023-06-26T03:44:14;11.23;;;6.18;;
75655;SDS011;64252;51.094;13.714;2023-06-26T03:46:45;11.23;;;6.00;;
75655;SDS011;64252;51.094;13.714;2023-06-26T03:49:10;8.45;;;5.82;;
75655;SDS011;64252;51.094;13.714;2023-06-26T03:51:36;8.93;;;6.30;;
75655;SDS011;64252;51.094;13.714;2023-06-26T03:54:02;9.57;;;5.85;;
75655;SDS011;64252;51.094;13.714;2023-06-26T03:56:30;9.23;;;5.30;;
75655;SDS011;64252;51.094;13.714;2023-06-26T03:58:55;9.38;;;6.03;;
75655;SDS011;64252;51.094;13.714;2023-06-26T04:01:21;11.88;;;6.90;;
75655;SDS011;64252;51.094;13.714;2023-06-26T04:03:48;11.77;;;6.65;;
75655;SDS011;64252;51.094;13.714;2023-06-26T04:06:14;10.57;;;6.45;;
75655;SDS011;64252;51.094;13.714;2023-06-26T04:08:39;12.93;;;6.40;;
75655;SDS011;64252;51.094;13.714;2023-06-26T04:11:05;10.38;;;5.90;;
75655;SDS011;64252;51.094;13.714;2023-06-26T04:13:30;11.60;;;6.10;;
75655;SDS011;64252;51.094;13.714;2023-06-26T04:15:56;10.57;;;6.10;;
75655;SDS011;64252;51.094;13.714;2023-06-26T04:18:21;10.13;;;6.78;;
75655;SDS011;64252;51.094;13.714;2023-06-26T04:23:32;8.77;;;5.57;;
75655;SDS011;64252;51.094;13.714;2023-06-26T04:25:58;10.07;;;6.22;;
75655;SDS011;64252;51.094;13.714;2023-06-26T04:28:24;8.40;;;5.78;;
75655;SDS011;64252;51.094;13.714;2023-06-26T04:30:50;13.77;;;6.10;;
75655;SDS011;64252;51.094;13.714;2023-06-26T04:33:16;8.93;;;5.93;;
75655;SDS011;64252;51.094;13.714;2023-06-26T04:35:41;11.35;;;5.80;;
75655;SDS011;64252;51.094;13.714;2023-06-26T04:38:10;8.77;;;5.38;;
75655;SDS011;64252;51.094;13.714;2023-06-26T04:40:36;12.32;;;6.43;;
75655;SDS011;64252;51.094;13.714;2023-06-26T04:43:02;13.57;;;6.05;;
75655;SDS011;64252;51.094;13.714;2023-06-26T04:45:28;9.10;;;5.68;;
75655;SDS011;64252;51.094;13.714;2023-06-26T04:47:53;9.43;;;6.00;;
75655;SDS011;64252;51.094;13.714;2023-06-26T04:50:19;11.27;;;5.43;;
75655;SDS011;64252;51.094;13.714;2023-06-26T04:52:44;8.75;;;5.85;;
75655;SDS011;64252;51.094;13.714;2023-06-26T04:55:10;9.68;;;6.07;;
75655;SDS011;64252;51.094;13.714;2023-06-26T04:57:35;10.65;;;5.90;;
75655;SDS011;64252;51.094;13.714;2023-06-26T05:00:02;11.00;;;6.80;;
75655;SDS011;64252;51.094;13.714;2023-06-26T05:02:29;10.00;;;5.90;;
75655;SDS011;64252;51.094;13.714;2023-06-26T05:04:55;9.25;;;5.65;;
75655;SDS011;64252;51.094;13.714;2023-06-26T05:07:20;8.57;;;4.82;;
75655;SDS011;64252;51.094;13.714;2023-06-26T05:09:46;14.45;;;4.90;;
75655;SDS011;64252;51.094;13.714;2023-06-26T05:12:11;7.72;;;4.38;;
75655;SDS011;64252;51.094;13.714;2023-06-26T05:14:38;6.88;;;4.78;;
75655;SDS011;64252;51.094;13.714;2023-06-26T05:17:03;6.40;;;4.28;;
75655;SDS011;64252;51.094;13.714;2023-06-26T05:19:29;7.63;;;3.55;;
75655;SDS011;64252;51.094;13.714;2023-06-26T05:21:55;7.45;;;3.83;;
75655;SDS011;64252;51.094;13.714;2023-06-26T05:24:21;7.57;;;4.30;;
75655;SDS011;64252;51.094;13.714;2023-06-26T05:26:48;8.32;;;4.22;;
75655;SDS011;64252;51.094;13.714;2023-06-26T05:29:14;5.60;;;3.65;;
75655;SDS011;64252;51.094;13.714;2023-06-26T05:31:41;6.07;;;4.07;;
75655;SDS011;64252;51.094;13.714;2023-06-26T05:34:07;7.28;;;3.63;;
75655;SDS011;64252;51.094;13.714;2023-06-26T05:36:36;8.88;;;4.63;;
75655;SDS011;64252;51.094;13.714;2023-06-26T05:39:03;5.20;;;3.30;;
75655;SDS011;64252;51.094;13.714;2023-06-26T05:41:29;5.90;;;3.60;;
75655;SDS011;64252;51.094;13.714;2023-06-26T05:43:54;6.03;;;3.72;;
75655;SDS011;64252;51.094;13.714;2023-06-26T05:46:20;6.85;;;3.58;;
75655;SDS011;64252;51.094;13.714;2023-06-26T05:48:45;6.45;;;3.35;;
75655;SDS011;64252;51.094;13.714;2023-06-26T05:51:12;6.47;;;3.67;;
75655;SDS011;64252;51.094;13.714;2023-06-26T05:53:38;7.00;;;3.35;;
75655;SDS011;64252;51.094;13.714;2023-06-26T05:56:04;6.25;;;3.67;;
75655;SDS011;64252;51.094;13.714;2023-06-26T05:58:30;5.07;;;3.38;;
75655;SDS011;64252;51.094;13.714;2023-06-26T06:00:56;6.45;;;3.90;;
75655;SDS011;64252;51.094;13.714;2023-06-26T06:03:21;7.47;;;3.67;;
75655;SDS011;64252;51.094;13.714;2023-06-26T06:05:47;4.25;;;3.10;;
75655;SDS011;64252;51.094;13.714;2023-06-26T06:08:12;5.63;;;3.30;;
75655;SDS011;64252;51.094;13.714;2023-06-26T06:10:38;5.13;;;3.22;;
75655;SDS011;64252;51.094;13.714;2023-06-26T06:13:03;5.57;;;3.22;;
75655;SDS011;64252;51.094;13.714;2023-06-26T06:15:29;6.88;;;3.30;;
75655;SDS011;64252;51.094;13.714;2023-06-26T06:17:54;5.40;;;3.25;;
75655;SDS011;64252;51.094;13.714;2023-06-26T06:20:20;6.80;;;3.45;;
75655;SDS011;64252;51.094;13.714;2023-06-26T06:22:46;5.90;;;3.63;;
75655;SDS011;64252;51.094;13.714;2023-06-26T06:25:13;4.97;;;3.35;;
75655;SDS011;64252;51.094;13.714;2023-06-26T06:27:39;5.22;;;3.22;;
75655;SDS011;64252;51.094;13.714;2023-06-26T06:30:05;5.88;;;3.67;;
75655;SDS011;64252;51.094;13.714;2023-06-26T06:32:31;5.55;;;3.78;;
75655;SDS011;64252;51.094;13.714;2023-06-26T06:34:57;4.78;;;3.20;;
75655;SDS011;64252;51.094;13.714;2023-06-26T06:37:22;5.32;;;3.20;;
75655;SDS011;64252;51.094;13.714;2023-06-26T06:39:49;5.13;;;3.28;;
75655;SDS011;64252;51.094;13.714;2023-06-26T06:42:14;5.15;;;2.95;;
75655;SDS011;64252;51.094;13.714;2023-06-26T06:44:40;6.07;;;3.17;;
75655;SDS011;64252;51.094;13.714;2023-06-26T06:47:06;7.75;;;3.40;;
75655;SDS011;64252;51.094;13.714;2023-06-26T06:49:31;5.78;;;2.97;;
75655;SDS011;64252;51.094;13.714;2023-06-26T06:51:57;5.75;;;3.25;;
75655;SDS011;64252;51.094;13.714;2023-06-26T06:56:51;5.97;;;3.22;;
75655;SDS011;64252;51.094;13.714;2023-06-26T06:59:18;5.85;;;2.85;;
75655;SDS011;64252;51.094;13.714;2023-06-26T07:01:44;4.88;;;3.28;;
75655;SDS011;64252;51.094;13.714;2023-06-26T07:04:09;5.55;;;3.30;;
75655;SDS011;64252;51.094;13.714;2023-06-26T07:06:35;4.68;;;2.97;;
75655;SDS011;64252;51.094;13.714;2023-06-26T07:09:01;5.65;;;3.03;;
75655;SDS011;64252;51.094;13.714;2023-06-26T07:11:26;5.75;;;2.95;;
75655;SDS011;64252;51.094;13.714;2023-06-26T07:13:52;4.35;;;2.95;;
75655;SDS011;64252;51.094;13.714;2023-06-26T07:16:17;7.05;;;2.95;;
75655;SDS011;64252;51.094;13.714;2023-06-26T07:18:43;5.00;;;2.95;;
75655;SDS011;64252;51.094;13.714;2023-06-26T07:21:09;4.38;;;2.67;;
75655;SDS011;64252;51.094;13.714;2023-06-26T07:23:34;3.97;;;2.45;;
75655;SDS011;64252;51.094;13.714;2023-06-26T07:26:00;5.60;;;2.90;;
75655;SDS011;64252;51.094;13.714;2023-06-26T07:28:25;5.60;;;2.70;;
75655;SDS011;64252;51.094;13.714;2023-06-26T07:30:51;3.90;;;2.70;;
75655;SDS011;64252;51.094;13.714;2023-06-26T07:33:16;6.63;;;3.10;;
75655;SDS011;64252;51.094;13.714;2023-06-26T07:35:42;5.63;;;2.92;;
75655;SDS011;64252;51.094;13.714;2023-06-26T07:38:07;4.25;;;2.67;;
75655;SDS011;64252;51.094;13.714;2023-06-26T07:40:34;4.50;;;2.92;;
75655;SDS011;64252;51.094;13.714;2023-06-26T07:42:59;7.03;;;2.85;;
75655;SDS011;64252;51.094;13.714;2023-06-26T07:45:25;3.97;;;2.63;;
75655;SDS011;64252;51.094;13.714;2023-06-26T07:47:50;4.93;;;2.80;;
75655;SDS011;64252;51.094;13.714;2023-06-26T07:50:16;5.07;;;2.85;;
75655;SDS011;64252;51.094;13.714;2023-06-26T07:52:46;5.22;;;3.28;;
75655;SDS011;64252;51.094;13.714;2023-06-26T07:55:12;4.55;;;3.03;;
75655;SDS011;64252;51.094;13.714;2023-06-26T07:57:37;6.22;;;3.05;;
75655;SDS011;64252;51.094;13.714;2023-06-26T08:00:03;4.20;;;2.90;;
75655;SDS011;64252;51.094;13.714;2023-06-26T08:02:39;5.57;;;3.00;;
75655;SDS011;64252;51.094;13.714;2023-06-26T08:05:05;6.22;;;3.05;;
75655;SDS011;64252;51.094;13.714;2023-06-26T08:07:30;4.90;;;3.50;;
75655;SDS011;64252;51.094;13.714;2023-06-26T08:09:56;5.35;;;3.15;;
75655;SDS011;64252;51.094;13.714;2023-06-26T08:12:21;4.43;;;2.97;;
75655;SDS011;64252;51.094;13.714;2023-06-26T08:14:47;5.53;;;3.38;;
75655;SDS011;64252;51.094;13.714;2023-06-26T08:17:13;5.03;;;3.10;;
75655;SDS011;64252;51.094;13.714;2023-06-26T08:19:38;5.85;;;3.25;;
75655;SDS011;64252;51.094;13.714;2023-06-26T08:22:04;4.63;;;3.35;;
75655;SDS011;64252;51.094;13.714;2023-06-26T08:24:30;5.20;;;2.90;;
75655;SDS011;64252;51.094;13.714;2023-06-26T08:26:56;7.13;;;3.97;;
75655;SDS011;64252;51.094;13.714;2023-06-26T08:29:21;5.38;;;3.05;;
75655;SDS011;64252;51.094;13.714;2023-06-26T08:31:47;7.53;;;3.70;;
75655;SDS011;64252;51.094;13.714;2023-06-26T08:34:12;6.78;;;3.67;;
75655;SDS011;64252;51.094;13.714;2023-06-26T08:36:38;7.35;;;3.60;;
75655;SDS011;64252;51.094;13.714;2023-06-26T08:39:04;5.70;;;3.70;;
75655;SDS011;64252;51.094;13.714;2023-06-26T08:41:30;7.10;;;3.55;;
75655;SDS011;64252;51.094;13.714;2023-06-26T08:43:56;5.15;;;3.22;;
75655;SDS011;64252;51.094;13.714;2023-06-26T08:46:22;5.43;;;3.30;;
75655;SDS011;64252;51.094;13.714;2023-06-26T08:48:58;5.82;;;3.95;;
75655;SDS011;64252;51.094;13.714;2023-06-26T08:51:27;9.32;;;3.63;;
75655;SDS011;64252;51.094;13.714;2023-06-26T08:54:00;5.43;;;3.28;;
75655;SDS011;64252;51.094;13.714;2023-06-26T08:56:28;5.30;;;3.50;;
75655;SDS011;64252;51.094;13.714;2023-06-26T08:58:58;6.60;;;3.97;;
75655;SDS011;64252;51.094;13.714;2023-06-26T09:01:24;5.65;;;3.60;;
75655;SDS011;64252;51.094;13.714;2023-06-26T09:03:50;6.30;;;4.32;;
75655;SDS011;64252;51.094;13.714;2023-06-26T09:06:17;5.95;;;3.10;;
75655;SDS011;64252;51.094;13.714;2023-06-26T09:08:44;6.00;;;3.63;;
75655;SDS011;64252;51.094;13.714;2023-06-26T09:11:10;7.07;;;3.63;;
75655;SDS011;64252;51.094;13.714;2023-06-26T09:13:36;5.65;;;3.30;;
75655;SDS011;64252;51.094;13.714;2023-06-26T09:16:08;4.93;;;3.35;;
75655;SDS011;64252;51.094;13.714;2023-06-26T09:18:34;5.00;;;3.08;;
75655;SDS011;64252;51.094;13.714;2023-06-26T09:21:00;7.05;;;4.13;;
75655;SDS011;64252;51.094;13.714;2023-06-26T09:23:32;5.28;;;3.95;;
75655;SDS011;64252;51.094;13.714;2023-06-26T09:25:58;5.05;;;3.20;;
75655;SDS011;64252;51.094;13.714;2023-06-26T09:28:24;5.25;;;3.55;;
75655;SDS011;64252;51.094;13.714;2023-06-26T09:30:50;5.32;;;3.60;;
75655;SDS011;64252;51.094;13.714;2023-06-26T09:33:17;5.47;;;3.75;;
75655;SDS011;64252;51.094;13.714;2023-06-26T09:38:11;5.40;;;3.63;;
75655;SDS011;64252;51.094;13.714;2023-06-26T09:40:38;8.10;;;3.80;;
75655;SDS011;64252;51.094;13.714;2023-06-26T09:43:04;5.68;;;3.80;;
75655;SDS011;64252;51.094;13.714;2023-06-26T09:45:31;5.97;;;3.40;;
75655;SDS011;64252;51.094;13.714;2023-06-26T09:48:00;5.00;;;3.10;;
75655;SDS011;64252;51.094;13.714;2023-06-26T09:50:28;6.63;;;3.42;;
75655;SDS011;64252;51.094;13.714;2023-06-26T09:52:55;4.85;;;3.35;;
75655;SDS011;64252;51.094;13.714;2023-06-26T09:55:20;5.50;;;3.88;;
75655;SDS011;64252;51.094;13.714;2023-06-26T10:00:21;5.15;;;3.38;;
75655;SDS011;64252;51.094;13.714;2023-06-26T10:02:47;5.22;;;3.40;;
75655;SDS011;64252;51.094;13.714;2023-06-26T10:05:12;5.45;;;3.60;;
75655;SDS011;64252;51.094;13.714;2023-06-26T10:07:38;5.65;;;3.30;;
75655;SDS011;64252;51.094;13.714;2023-06-26T10:10:05;5.50;;;3.58;;
75655;SDS011;64252;51.094;13.714;2023-06-26T10:12:32;4.90;;;3.13;;
75655;SDS011;64252;51.094;13.714;2023-06-26T10:14:58;5.30;;;3.75;;
75655;SDS011;64252;51.094;13.714;2023-06-26T10:17:29;6.30;;;3.83;;
75655;SDS011;64252;51.094;13.714;2023-06-26T10:19:58;5.47;;;3.53;;
75655;SDS011;64252;51.094;13.714;2023-06-26T10:22:25;5.15;;;3.33;;
75655;SDS011;64252;51.094;13.714;2023-06-26T10:24:59;4.60;;;3.08;;
75655;SDS011;64252;51.094;13.714;2023-06-26T10:27:27;4.93;;;3.38;;
75655;SDS011;64252;51.094;13.714;2023-06-26T10:30:03;6.07;;;3.40;;
75655;SDS011;64252;51.094;13.714;2023-06-26T10:32:33;5.53;;;3.70;;
75655;SDS011;64252;51.094;13.714;2023-06-26T10:34:58;5.20;;;3.35;;
75655;SDS011;64252;51.094;13.714;2023-06-26T10:37:43;6.35;;;3.35;;
75655;SDS011;64252;51.094;13.714;2023-06-26T10:40:09;5.00;;;3.15;;
75655;SDS011;64252;51.094;13.714;2023-06-26T10:42:37;5.80;;;3.42;;
75655;SDS011;64252;51.094;13.714;2023-06-26T10:47:39;6.10;;;3.67;;
75655;SDS011;64252;51.094;13.714;2023-06-26T10:50:18;5.10;;;3.42;;
75655;SDS011;64252;51.094;13.714;2023-06-26T10:52:45;4.40;;;3.10;;
75655;SDS011;64252;51.094;13.714;2023-06-26T10:55:31;4.95;;;3.08;;
75655;SDS011;64252;51.094;13.714;2023-06-26T10:57:57;5.18;;;3.53;;
75655;SDS011;64252;51.094;13.714;2023-06-26T11:00:22;5.72;;;3.45;;
75655;SDS011;64252;51.094;13.714;2023-06-26T11:02:48;5.20;;;3.53;;
75655;SDS011;64252;51.094;13.714;2023-06-26T11:05:28;5.57;;;3.70;;
75655;SDS011;64252;51.094;13.714;2023-06-26T11:08:07;5.90;;;3.65;;
75655;SDS011;64252;51.094;13.714;2023-06-26T11:10:53;6.55;;;3.33;;
75655;SDS011;64252;51.094;13.714;2023-06-26T11:13:25;5.97;;;3.50;;
75655;SDS011;64252;51.094;13.714;2023-06-26T11:15:51;5.72;;;3.63;;
75655;SDS011;64252;51.094;13.714;2023-06-26T11:18:18;5.43;;;3.60;;
75655;SDS011;64252;51.094;13.714;2023-06-26T11:20:44;5.25;;;3.63;;
75655;SDS011;64252;51.094;13.714;2023-06-26T11:23:09;6.75;;;3.58;;
75655;SDS011;64252;51.094;13.714;2023-06-26T11:25:37;5.68;;;3.75;;
75655;SDS011;64252;51.094;13.714;2023-06-26T11:28:05;5.05;;;3.40;;
75655;SDS011;64252;51.094;13.714;2023-06-26T11:30:34;6.30;;;3.70;;
75655;SDS011;64252;51.094;13.714;2023-06-26T11:33:07;5.82;;;3.58;;
75655;SDS011;64252;51.094;13.714;2023-06-26T11:35:34;8.00;;;3.28;;
75655;SDS011;64252;51.094;13.714;2023-06-26T11:38:00;4.90;;;3.30;;
75655;SDS011;64252;51.094;13.714;2023-06-26T11:40:32;6.43;;;3.08;;
75655;SDS011;64252;51.094;13.714;2023-06-26T11:42:58;5.75;;;3.45;;
75655;SDS011;64252;51.094;13.714;2023-06-26T11:45:29;4.80;;;3.30;;
75655;SDS011;64252;51.094;13.714;2023-06-26T11:47:56;5.47;;;3.35;;
75655;SDS011;64252;51.094;13.714;2023-06-26T11:50:24;5.60;;;3.60;;
75655;SDS011;64252;51.094;13.714;2023-06-26T11:52:54;5.35;;;3.15;;
75655;SDS011;64252;51.094;13.714;2023-06-26T11:55:24;6.22;;;4.22;;
75655;SDS011;64252;51.094;13.714;2023-06-26T11:57:53;7.53;;;4.20;;
75655;SDS011;64252;51.094;13.714;2023-06-26T12:00:20;5.10;;;3.47;;
75655;SDS011;64252;51.094;13.714;2023-06-26T12:02:46;4.80;;;3.35;;
75655;SDS011;64252;51.094;13.714;2023-06-26T12:05:15;4.90;;;3.25;;
75655;SDS011;64252;51.094;13.714;2023-06-26T12:07:42;5.90;;;3.40;;
75655;SDS011;64252;51.094;13.714;2023-06-26T12:10:10;4.63;;;3.05;;
75655;SDS011;64252;51.094;13.714;2023-06-26T12:12:37;5.13;;;3.45;;
75655;SDS011;64252;51.094;13.714;2023-06-26T12:15:03;4.90;;;3.15;;
75655;SDS011;64252;51.094;13.714;2023-06-26T12:17:30;5.65;;;3.80;;
75655;SDS011;64252;51.094;13.714;2023-06-26T12:19:56;5.10;;;3.15;;
75655;SDS011;64252;51.094;13.714;2023-06-26T12:22:22;5.72;;;3.38;;
75655;SDS011;64252;51.094;13.714;2023-06-26T12:24:47;6.97;;;3.70;;
75655;SDS011;64252;51.094;13.714;2023-06-26T12:27:14;4.90;;;3.45;;
75655;SDS011;64252;51.094;13.714;2023-06-26T12:29:45;5.85;;;3.38;;
75655;SDS011;64252;51.094;13.714;2023-06-26T12:32:15;5.15;;;3.63;;
75655;SDS011;64252;51.094;13.714;2023-06-26T12:34:40;5.80;;;3.50;;
75655;SDS011;64252;51.094;13.714;2023-06-26T12:37:09;4.95;;;3.20;;
75655;SDS011;64252;51.094;13.714;2023-06-26T12:39:53;5.10;;;2.97;;
75655;SDS011;64252;51.094;13.714;2023-06-26T12:42:23;5.35;;;3.13;;
75655;SDS011;64252;51.094;13.714;2023-06-26T12:44:53;5.07;;;3.20;;
75655;SDS011;64252;51.094;13.714;2023-06-26T12:47:25;5.65;;;3.15;;
75655;SDS011;64252;51.094;13.714;2023-06-26T12:49:53;5.68;;;3.53;;
75655;SDS011;64252;51.094;13.714;2023-06-26T12:52:19;5.32;;;3.65;;
75655;SDS011;64252;51.094;13.714;2023-06-26T12:54:47;6.20;;;3.17;;
75655;SDS011;64252;51.094;13.714;2023-06-26T12:57:17;4.70;;;3.15;;
75655;SDS011;64252;51.094;13.714;2023-06-26T12:59:43;5.38;;;3.58;;
75655;SDS011;64252;51.094;13.714;2023-06-26T13:02:08;5.10;;;3.22;;
75655;SDS011;64252;51.094;13.714;2023-06-26T13:04:36;4.57;;;3.10;;
75655;SDS011;64252;51.094;13.714;2023-06-26T13:07:06;6.68;;;3.55;;
75655;SDS011;64252;51.094;13.714;2023-06-26T13:09:33;5.28;;;3.33;;
75655;SDS011;64252;51.094;13.714;2023-06-26T13:12:04;6.05;;;3.40;;
75655;SDS011;64252;51.094;13.714;2023-06-26T13:17:03;5.50;;;3.53;;
75655;SDS011;64252;51.094;13.714;2023-06-26T13:19:29;4.63;;;3.10;;
75655;SDS011;64252;51.094;13.714;2023-06-26T13:21:54;5.07;;;3.10;;
75655;SDS011;64252;51.094;13.714;2023-06-26T13:24:20;5.00;;;3.60;;
75655;SDS011;64252;51.094;13.714;2023-06-26T13:26:45;5.85;;;3.75;;
75655;SDS011;64252;51.094;13.714;2023-06-26T13:29:11;4.78;;;3.45;;
75655;SDS011;64252;51.094;13.714;2023-06-26T13:31:36;5.13;;;3.20;;
75655;SDS011;64252;51.094;13.714;2023-06-26T13:34:03;6.13;;;3.40;;
75655;SDS011;64252;51.094;13.714;2023-06-26T13:36:30;5.57;;;3.22;;
75655;SDS011;64252;51.094;13.714;2023-06-26T13:39:01;5.30;;;4.07;;
75655;SDS011;64252;51.094;13.714;2023-06-26T13:41:27;5.10;;;3.58;;
75655;SDS011;64252;51.094;13.714;2023-06-26T13:43:54;6.47;;;3.13;;
75655;SDS011;64252;51.094;13.714;2023-06-26T13:46:19;4.70;;;3.35;;
75655;SDS011;64252;51.094;13.714;2023-06-26T13:48:45;5.75;;;3.50;;
75655;SDS011;64252;51.094;13.714;2023-06-26T13:51:11;6.43;;;3.80;;
75655;SDS011;64252;51.094;13.714;2023-06-26T13:53:36;9.98;;;7.35;;
75655;SDS011;64252;51.094;13.714;2023-06-26T13:56:02;5.65;;;4.07;;
75655;SDS011;64252;51.094;13.714;2023-06-26T13:58:28;5.20;;;3.25;;
75655;SDS011;64252;51.094;13.714;2023-06-26T14:00:57;5.20;;;3.85;;
75655;SDS011;64252;51.094;13.714;2023-06-26T14:03:23;6.53;;;3.53;;
75655;SDS011;64252;51.094;13.714;2023-06-26T14:05:49;4.40;;;3.28;;
75655;SDS011;64252;51.094;13.714;2023-06-26T14:08:14;5.55;;;3.30;;
75655;SDS011;64252;51.094;13.714;2023-06-26T14:10:40;6.35;;;3.95;;
75655;SDS011;64252;51.094;13.714;2023-06-26T14:13:06;8.13;;;5.80;;
75655;SDS011;64252;51.094;13.714;2023-06-26T14:15:32;5.68;;;4.03;;
75655;SDS011;64252;51.094;13.714;2023-06-26T14:17:58;6.43;;;3.60;;
75655;SDS011;64252;51.094;13.714;2023-06-26T14:20:24;5.85;;;3.70;;
75655;SDS011;64252;51.094;13.714;2023-06-26T14:22:49;6.00;;;3.22;;
75655;SDS011;64252;51.094;13.714;2023-06-26T14:25:16;5.05;;;3.42;;
75655;SDS011;64252;51.094;13.714;2023-06-26T14:27:41;6.00;;;4.10;;
75655;SDS011;64252;51.094;13.714;2023-06-26T14:30:07;6.43;;;3.80;;
75655;SDS011;64252;51.094;13.714;2023-06-26T14:32:34;6.30;;;3.58;;
75655;SDS011;64252;51.094;13.714;2023-06-26T14:35:00;6.60;;;3.67;;
75655;SDS011;64252;51.094;13.714;2023-06-26T14:37:28;5.35;;;3.47;;
75655;SDS011;64252;51.094;13.714;2023-06-26T14:39:56;6.38;;;3.65;;
75655;SDS011;64252;51.094;13.714;2023-06-26T14:42:22;6.55;;;3.83;;
75655;SDS011;64252;51.094;13.714;2023-06-26T14:44:48;6.22;;;3.58;;
75655;SDS011;64252;51.094;13.714;2023-06-26T14:47:18;5.18;;;3.25;;
75655;SDS011;64252;51.094;13.714;2023-06-26T14:49:44;5.63;;;3.40;;
75655;SDS011;64252;51.094;13.714;2023-06-26T14:52:09;8.95;;;5.85;;